sensor_id;sensor_type;location;lat;lon;timestamp;P1;durP1;ratioP1;P2;durP2;ratioP2
60726;SDS011;46577;49.004;12.120;2023-04-07T00:00:55;19.20;;;10.77;;
60726;SDS011;46577;49.004;12.120;2023-04-07T00:03:21;19.87;;;11.13;;
60726;SDS011;46577;49.004;12.120;2023-04-07T00:05:47;28.10;;;12.63;;
60726;SDS011;46577;49.004;12.120;2023-04-07T00:08:13;21.70;;;11.60;;
60726;SDS011;46577;49.004;12.120;2023-04-07T00:10:38;20.33;;;10.20;;
60726;SDS011;46577;49.004;12.120;2023-04-07T00:13:04;23.17;;;10.97;;
60726;SDS011;46577;49.004;12.120;2023-04-07T00:15:30;25.63;;;11.30;;
60726;SDS011;46577;49.004;12.120;2023-04-07T00:17:55;23.40;;;12.30;;
60726;SDS011;46577;49.004;12.120;2023-04-07T00:20:21;23.93;;;11.70;;
60726;SDS011;46577;49.004;12.120;2023-04-07T00:22:47;19.07;;;11.17;;
60726;SDS011;46577;49.004;12.120;2023-04-07T00:25:13;21.30;;;11.30;;
60726;SDS011;46577;49.004;12.120;2023-04-07T00:27:39;19.70;;;11.20;;
60726;SDS011;46577;49.004;12.120;2023-04-07T00:30:05;19.43;;;10.90;;
60726;SDS011;46577;49.004;12.120;2023-04-07T00:32:31;20.93;;;11.13;;
60726;SDS011;46577;49.004;12.120;2023-04-07T00:34:57;18.90;;;11.53;;
60726;SDS011;46577;49.004;12.120;2023-04-07T00:37:22;19.53;;;10.57;;
60726;SDS011;46577;49.004;12.120;2023-04-07T00:39:49;22.87;;;10.73;;
60726;SDS011;46577;49.004;12.120;2023-04-07T00:42:15;17.83;;;10.57;;
60726;SDS011;46577;49.004;12.120;2023-04-07T00:44:41;18.67;;;11.70;;
60726;SDS011;46577;49.004;12.120;2023-04-07T00:47:07;16.77;;;10.50;;
60726;SDS011;46577;49.004;12.120;2023-04-07T00:49:33;21.00;;;10.97;;
60726;SDS011;46577;49.004;12.120;2023-04-07T00:52:01;18.13;;;11.10;;
60726;SDS011;46577;49.004;12.120;2023-04-07T00:54:27;20.87;;;12.40;;
60726;SDS011;46577;49.004;12.120;2023-04-07T00:56:54;27.30;;;12.03;;
60726;SDS011;46577;49.004;12.120;2023-04-07T00:59:21;22.30;;;11.50;;
60726;SDS011;46577;49.004;12.120;2023-04-07T01:01:48;18.77;;;10.77;;
60726;SDS011;46577;49.004;12.120;2023-04-07T01:07:47;22.83;;;10.70;;
60726;SDS011;46577;49.004;12.120;2023-04-07T01:10:16;16.47;;;10.93;;
60726;SDS011;46577;49.004;12.120;2023-04-07T01:12:56;23.00;;;11.60;;
60726;SDS011;46577;49.004;12.120;2023-04-07T01:15:27;22.63;;;12.07;;
60726;SDS011;46577;49.004;12.120;2023-04-07T01:17:56;22.23;;;12.03;;
60726;SDS011;46577;49.004;12.120;2023-04-07T01:20:25;18.87;;;10.67;;
60726;SDS011;46577;49.004;12.120;2023-04-07T01:22:55;22.63;;;11.63;;
60726;SDS011;46577;49.004;12.120;2023-04-07T01:31:08;21.13;;;11.67;;
60726;SDS011;46577;49.004;12.120;2023-04-07T01:33:36;23.77;;;12.27;;
60726;SDS011;46577;49.004;12.120;2023-04-07T01:36:04;21.17;;;11.27;;
60726;SDS011;46577;49.004;12.120;2023-04-07T01:38:32;20.13;;;11.13;;
60726;SDS011;46577;49.004;12.120;2023-04-07T01:40:58;18.77;;;10.73;;
60726;SDS011;46577;49.004;12.120;2023-04-07T01:43:25;20.67;;;11.07;;
60726;SDS011;46577;49.004;12.120;2023-04-07T01:45:53;18.20;;;10.63;;
60726;SDS011;46577;49.004;12.120;2023-04-07T01:48:20;18.37;;;11.20;;
60726;SDS011;46577;49.004;12.120;2023-04-07T01:50:46;22.77;;;12.53;;
60726;SDS011;46577;49.004;12.120;2023-04-07T01:53:12;21.47;;;11.50;;
60726;SDS011;46577;49.004;12.120;2023-04-07T01:55:40;18.67;;;11.57;;
60726;SDS011;46577;49.004;12.120;2023-04-07T01:58:07;18.60;;;10.80;;
60726;SDS011;46577;49.004;12.120;2023-04-07T02:00:33;23.00;;;11.93;;
60726;SDS011;46577;49.004;12.120;2023-04-07T02:03:10;19.00;;;10.90;;
60726;SDS011;46577;49.004;12.120;2023-04-07T02:05:44;22.20;;;11.77;;
60726;SDS011;46577;49.004;12.120;2023-04-07T02:08:12;23.80;;;11.60;;
60726;SDS011;46577;49.004;12.120;2023-04-07T02:10:41;24.00;;;12.50;;
60726;SDS011;46577;49.004;12.120;2023-04-07T02:13:12;22.60;;;12.30;;
60726;SDS011;46577;49.004;12.120;2023-04-07T02:15:42;24.80;;;12.10;;
60726;SDS011;46577;49.004;12.120;2023-04-07T02:18:09;25.23;;;13.03;;
60726;SDS011;46577;49.004;12.120;2023-04-07T02:20:37;25.23;;;13.70;;
60726;SDS011;46577;49.004;12.120;2023-04-07T02:23:08;25.10;;;12.73;;
60726;SDS011;46577;49.004;12.120;2023-04-07T02:25:34;26.70;;;13.73;;
60726;SDS011;46577;49.004;12.120;2023-04-07T02:28:02;25.60;;;15.17;;
60726;SDS011;46577;49.004;12.120;2023-04-07T02:30:28;26.40;;;14.07;;
60726;SDS011;46577;49.004;12.120;2023-04-07T02:32:54;27.50;;;13.20;;
60726;SDS011;46577;49.004;12.120;2023-04-07T02:35:20;19.23;;;11.60;;
60726;SDS011;46577;49.004;12.120;2023-04-07T02:37:46;22.47;;;12.43;;
60726;SDS011;46577;49.004;12.120;2023-04-07T02:40:12;27.07;;;11.33;;
60726;SDS011;46577;49.004;12.120;2023-04-07T02:42:38;23.23;;;11.70;;
60726;SDS011;46577;49.004;12.120;2023-04-07T02:45:05;20.83;;;11.90;;
60726;SDS011;46577;49.004;12.120;2023-04-07T02:47:32;23.50;;;11.50;;
60726;SDS011;46577;49.004;12.120;2023-04-07T02:49:58;19.33;;;10.80;;
60726;SDS011;46577;49.004;12.120;2023-04-07T02:52:24;20.03;;;11.50;;
60726;SDS011;46577;49.004;12.120;2023-04-07T02:54:50;21.70;;;11.20;;
60726;SDS011;46577;49.004;12.120;2023-04-07T02:57:16;20.60;;;10.77;;
60726;SDS011;46577;49.004;12.120;2023-04-07T02:59:42;24.07;;;12.50;;
60726;SDS011;46577;49.004;12.120;2023-04-07T03:02:08;18.20;;;10.70;;
60726;SDS011;46577;49.004;12.120;2023-04-07T03:04:33;20.70;;;11.80;;
60726;SDS011;46577;49.004;12.120;2023-04-07T03:06:59;19.03;;;12.00;;
60726;SDS011;46577;49.004;12.120;2023-04-07T03:09:25;22.50;;;13.60;;
60726;SDS011;46577;49.004;12.120;2023-04-07T03:11:51;20.47;;;11.13;;
60726;SDS011;46577;49.004;12.120;2023-04-07T03:14:17;25.17;;;12.47;;
60726;SDS011;46577;49.004;12.120;2023-04-07T03:16:42;21.50;;;12.23;;
60726;SDS011;46577;49.004;12.120;2023-04-07T03:19:08;23.07;;;12.87;;
60726;SDS011;46577;49.004;12.120;2023-04-07T03:21:35;21.40;;;12.00;;
60726;SDS011;46577;49.004;12.120;2023-04-07T03:24:02;27.37;;;13.20;;
60726;SDS011;46577;49.004;12.120;2023-04-07T03:26:28;18.23;;;11.00;;
60726;SDS011;46577;49.004;12.120;2023-04-07T03:28:54;25.53;;;12.33;;
60726;SDS011;46577;49.004;12.120;2023-04-07T03:31:20;21.20;;;11.70;;
60726;SDS011;46577;49.004;12.120;2023-04-07T03:33:47;27.33;;;12.93;;
60726;SDS011;46577;49.004;12.120;2023-04-07T03:36:13;22.70;;;12.10;;
60726;SDS011;46577;49.004;12.120;2023-04-07T03:38:39;26.37;;;11.63;;
60726;SDS011;46577;49.004;12.120;2023-04-07T03:41:05;26.90;;;12.43;;
60726;SDS011;46577;49.004;12.120;2023-04-07T03:43:30;23.50;;;13.00;;
60726;SDS011;46577;49.004;12.120;2023-04-07T03:45:56;24.07;;;11.90;;
60726;SDS011;46577;49.004;12.120;2023-04-07T03:48:21;21.87;;;11.47;;
60726;SDS011;46577;49.004;12.120;2023-04-07T03:50:47;28.67;;;13.37;;
60726;SDS011;46577;49.004;12.120;2023-04-07T03:53:13;18.30;;;11.73;;
60726;SDS011;46577;49.004;12.120;2023-04-07T03:55:40;26.20;;;12.17;;
60726;SDS011;46577;49.004;12.120;2023-04-07T03:58:06;27.70;;;12.33;;
60726;SDS011;46577;49.004;12.120;2023-04-07T04:00:33;21.03;;;12.93;;
60726;SDS011;46577;49.004;12.120;2023-04-07T04:02:59;19.87;;;11.00;;
60726;SDS011;46577;49.004;12.120;2023-04-07T04:05:25;20.47;;;11.83;;
60726;SDS011;46577;49.004;12.120;2023-04-07T04:07:51;22.07;;;12.00;;
60726;SDS011;46577;49.004;12.120;2023-04-07T04:10:17;20.63;;;11.70;;
60726;SDS011;46577;49.004;12.120;2023-04-07T04:12:43;24.70;;;12.63;;
60726;SDS011;46577;49.004;12.120;2023-04-07T04:15:10;30.53;;;12.17;;
60726;SDS011;46577;49.004;12.120;2023-04-07T04:17:36;25.93;;;12.73;;
60726;SDS011;46577;49.004;12.120;2023-04-07T04:20:02;19.43;;;10.73;;
60726;SDS011;46577;49.004;12.120;2023-04-07T04:22:28;22.17;;;12.77;;
60726;SDS011;46577;49.004;12.120;2023-04-07T04:24:53;20.53;;;10.87;;
60726;SDS011;46577;49.004;12.120;2023-04-07T04:27:19;23.70;;;13.40;;
60726;SDS011;46577;49.004;12.120;2023-04-07T04:29:45;19.57;;;11.20;;
60726;SDS011;46577;49.004;12.120;2023-04-07T04:32:11;20.90;;;11.93;;
60726;SDS011;46577;49.004;12.120;2023-04-07T04:34:37;18.77;;;10.93;;
60726;SDS011;46577;49.004;12.120;2023-04-07T04:37:04;22.77;;;11.90;;
60726;SDS011;46577;49.004;12.120;2023-04-07T04:39:30;20.60;;;11.60;;
60726;SDS011;46577;49.004;12.120;2023-04-07T04:41:55;22.80;;;12.10;;
60726;SDS011;46577;49.004;12.120;2023-04-07T04:44:21;24.83;;;13.27;;
60726;SDS011;46577;49.004;12.120;2023-04-07T04:46:47;25.67;;;12.93;;
60726;SDS011;46577;49.004;12.120;2023-04-07T04:49:12;20.97;;;13.60;;
60726;SDS011;46577;49.004;12.120;2023-04-07T04:51:40;26.33;;;13.83;;
60726;SDS011;46577;49.004;12.120;2023-04-07T04:54:06;23.53;;;12.20;;
60726;SDS011;46577;49.004;12.120;2023-04-07T04:56:32;23.87;;;12.43;;
60726;SDS011;46577;49.004;12.120;2023-04-07T04:58:57;20.20;;;12.43;;
60726;SDS011;46577;49.004;12.120;2023-04-07T05:01:23;22.77;;;12.03;;
60726;SDS011;46577;49.004;12.120;2023-04-07T05:03:49;30.50;;;11.87;;
60726;SDS011;46577;49.004;12.120;2023-04-07T05:06:15;26.00;;;12.17;;
60726;SDS011;46577;49.004;12.120;2023-04-07T05:08:40;21.23;;;11.77;;
60726;SDS011;46577;49.004;12.120;2023-04-07T05:11:06;21.50;;;11.50;;
60726;SDS011;46577;49.004;12.120;2023-04-07T05:13:31;25.50;;;13.20;;
60726;SDS011;46577;49.004;12.120;2023-04-07T05:15:58;17.67;;;10.47;;
60726;SDS011;46577;49.004;12.120;2023-04-07T05:18:23;25.20;;;10.73;;
60726;SDS011;46577;49.004;12.120;2023-04-07T05:20:49;16.83;;;11.07;;
60726;SDS011;46577;49.004;12.120;2023-04-07T05:23:15;17.13;;;9.67;;
60726;SDS011;46577;49.004;12.120;2023-04-07T05:25:40;15.00;;;9.60;;
60726;SDS011;46577;49.004;12.120;2023-04-07T05:28:06;18.13;;;8.43;;
60726;SDS011;46577;49.004;12.120;2023-04-07T05:30:32;13.77;;;9.03;;
60726;SDS011;46577;49.004;12.120;2023-04-07T05:32:58;21.80;;;9.37;;
60726;SDS011;46577;49.004;12.120;2023-04-07T05:35:24;14.17;;;9.13;;
60726;SDS011;46577;49.004;12.120;2023-04-07T05:37:49;16.37;;;9.27;;
60726;SDS011;46577;49.004;12.120;2023-04-07T05:40:15;16.17;;;9.10;;
60726;SDS011;46577;49.004;12.120;2023-04-07T05:42:41;14.10;;;8.23;;
60726;SDS011;46577;49.004;12.120;2023-04-07T05:45:07;25.73;;;8.87;;
60726;SDS011;46577;49.004;12.120;2023-04-07T05:47:33;15.93;;;8.77;;
60726;SDS011;46577;49.004;12.120;2023-04-07T05:49:59;16.10;;;9.53;;
60726;SDS011;46577;49.004;12.120;2023-04-07T05:52:25;15.07;;;8.87;;
60726;SDS011;46577;49.004;12.120;2023-04-07T05:54:50;12.27;;;7.70;;
60726;SDS011;46577;49.004;12.120;2023-04-07T05:57:16;13.27;;;8.50;;
60726;SDS011;46577;49.004;12.120;2023-04-07T05:59:42;10.10;;;7.03;;
60726;SDS011;46577;49.004;12.120;2023-04-07T06:02:07;11.37;;;8.00;;
60726;SDS011;46577;49.004;12.120;2023-04-07T06:04:33;13.07;;;8.17;;
60726;SDS011;46577;49.004;12.120;2023-04-07T06:06:59;15.67;;;7.13;;
60726;SDS011;46577;49.004;12.120;2023-04-07T06:09:25;11.27;;;7.67;;
60726;SDS011;46577;49.004;12.120;2023-04-07T06:11:51;12.60;;;7.20;;
60726;SDS011;46577;49.004;12.120;2023-04-07T06:14:17;13.67;;;8.30;;
60726;SDS011;46577;49.004;12.120;2023-04-07T06:16:42;11.37;;;7.30;;
60726;SDS011;46577;49.004;12.120;2023-04-07T06:19:08;9.80;;;7.93;;
60726;SDS011;46577;49.004;12.120;2023-04-07T06:21:34;14.47;;;8.33;;
60726;SDS011;46577;49.004;12.120;2023-04-07T06:23:59;16.73;;;8.50;;
60726;SDS011;46577;49.004;12.120;2023-04-07T06:26:25;12.50;;;7.63;;
60726;SDS011;46577;49.004;12.120;2023-04-07T06:28:51;13.30;;;8.63;;
60726;SDS011;46577;49.004;12.120;2023-04-07T06:31:17;13.50;;;8.17;;
60726;SDS011;46577;49.004;12.120;2023-04-07T06:33:43;14.03;;;8.23;;
60726;SDS011;46577;49.004;12.120;2023-04-07T06:36:10;12.20;;;8.10;;
60726;SDS011;46577;49.004;12.120;2023-04-07T06:38:36;11.80;;;8.10;;
60726;SDS011;46577;49.004;12.120;2023-04-07T06:41:02;10.37;;;8.00;;
60726;SDS011;46577;49.004;12.120;2023-04-07T06:43:28;10.73;;;7.53;;
60726;SDS011;46577;49.004;12.120;2023-04-07T06:45:54;11.20;;;7.90;;
60726;SDS011;46577;49.004;12.120;2023-04-07T06:48:20;10.60;;;7.37;;
60726;SDS011;46577;49.004;12.120;2023-04-07T06:50:47;11.27;;;8.00;;
60726;SDS011;46577;49.004;12.120;2023-04-07T06:53:13;10.10;;;7.00;;
60726;SDS011;46577;49.004;12.120;2023-04-07T06:55:39;8.87;;;7.77;;
60726;SDS011;46577;49.004;12.120;2023-04-07T06:58:05;9.40;;;7.73;;
60726;SDS011;46577;49.004;12.120;2023-04-07T07:00:31;8.80;;;7.10;;
60726;SDS011;46577;49.004;12.120;2023-04-07T07:02:56;13.77;;;8.73;;
60726;SDS011;46577;49.004;12.120;2023-04-07T07:05:22;13.23;;;9.13;;
60726;SDS011;46577;49.004;12.120;2023-04-07T07:07:48;19.60;;;9.30;;
60726;SDS011;46577;49.004;12.120;2023-04-07T07:10:14;11.20;;;8.87;;
60726;SDS011;46577;49.004;12.120;2023-04-07T07:12:40;11.63;;;8.53;;
60726;SDS011;46577;49.004;12.120;2023-04-07T07:15:06;11.53;;;8.33;;
60726;SDS011;46577;49.004;12.120;2023-04-07T07:17:32;10.40;;;8.00;;
60726;SDS011;46577;49.004;12.120;2023-04-07T07:19:57;9.40;;;8.00;;
60726;SDS011;46577;49.004;12.120;2023-04-07T07:22:23;9.40;;;7.80;;
60726;SDS011;46577;49.004;12.120;2023-04-07T07:24:49;13.77;;;8.07;;
60726;SDS011;46577;49.004;12.120;2023-04-07T07:27:15;12.77;;;8.40;;
60726;SDS011;46577;49.004;12.120;2023-04-07T07:29:40;9.33;;;8.13;;
60726;SDS011;46577;49.004;12.120;2023-04-07T07:32:06;9.63;;;8.63;;
60726;SDS011;46577;49.004;12.120;2023-04-07T07:34:32;9.70;;;8.60;;
60726;SDS011;46577;49.004;12.120;2023-04-07T07:36:57;11.20;;;8.80;;
60726;SDS011;46577;49.004;12.120;2023-04-07T07:39:24;11.60;;;8.73;;
60726;SDS011;46577;49.004;12.120;2023-04-07T07:41:50;13.63;;;9.60;;
60726;SDS011;46577;49.004;12.120;2023-04-07T07:44:15;10.83;;;9.17;;
60726;SDS011;46577;49.004;12.120;2023-04-07T07:46:44;9.53;;;8.53;;
60726;SDS011;46577;49.004;12.120;2023-04-07T07:49:09;11.00;;;8.80;;
60726;SDS011;46577;49.004;12.120;2023-04-07T07:51:35;10.23;;;8.43;;
60726;SDS011;46577;49.004;12.120;2023-04-07T07:54:01;9.03;;;8.07;;
60726;SDS011;46577;49.004;12.120;2023-04-07T07:56:27;11.73;;;8.00;;
60726;SDS011;46577;49.004;12.120;2023-04-07T07:58:53;13.93;;;8.67;;
60726;SDS011;46577;49.004;12.120;2023-04-07T08:01:18;13.07;;;8.57;;
60726;SDS011;46577;49.004;12.120;2023-04-07T08:03:44;12.77;;;8.93;;
60726;SDS011;46577;49.004;12.120;2023-04-07T08:06:10;10.13;;;8.37;;
60726;SDS011;46577;49.004;12.120;2023-04-07T08:08:37;9.97;;;8.27;;
60726;SDS011;46577;49.004;12.120;2023-04-07T08:11:02;12.53;;;9.53;;
60726;SDS011;46577;49.004;12.120;2023-04-07T08:13:28;10.50;;;9.40;;
60726;SDS011;46577;49.004;12.120;2023-04-07T08:15:54;10.57;;;8.80;;
60726;SDS011;46577;49.004;12.120;2023-04-07T08:18:20;10.47;;;8.30;;
60726;SDS011;46577;49.004;12.120;2023-04-07T08:20:45;13.27;;;9.77;;
60726;SDS011;46577;49.004;12.120;2023-04-07T08:23:11;12.13;;;9.07;;
60726;SDS011;46577;49.004;12.120;2023-04-07T08:25:37;10.70;;;8.40;;
60726;SDS011;46577;49.004;12.120;2023-04-07T08:28:05;11.03;;;8.83;;
60726;SDS011;46577;49.004;12.120;2023-04-07T08:30:31;8.67;;;7.77;;
60726;SDS011;46577;49.004;12.120;2023-04-07T08:32:57;8.53;;;7.73;;
60726;SDS011;46577;49.004;12.120;2023-04-07T08:35:22;9.13;;;8.13;;
60726;SDS011;46577;49.004;12.120;2023-04-07T08:37:48;8.63;;;7.83;;
60726;SDS011;46577;49.004;12.120;2023-04-07T08:40:14;8.23;;;7.43;;
60726;SDS011;46577;49.004;12.120;2023-04-07T08:42:41;9.40;;;8.40;;
60726;SDS011;46577;49.004;12.120;2023-04-07T08:45:09;9.10;;;8.20;;
60726;SDS011;46577;49.004;12.120;2023-04-07T08:47:36;9.60;;;8.53;;
60726;SDS011;46577;49.004;12.120;2023-04-07T08:50:06;9.33;;;8.50;;
60726;SDS011;46577;49.004;12.120;2023-04-07T08:52:35;8.60;;;7.67;;
60726;SDS011;46577;49.004;12.120;2023-04-07T08:55:07;8.83;;;8.10;;
60726;SDS011;46577;49.004;12.120;2023-04-07T08:57:33;11.90;;;8.63;;
60726;SDS011;46577;49.004;12.120;2023-04-07T08:59:59;9.23;;;7.87;;
60726;SDS011;46577;49.004;12.120;2023-04-07T09:02:30;10.23;;;8.63;;
60726;SDS011;46577;49.004;12.120;2023-04-07T09:05:04;9.30;;;8.40;;
60726;SDS011;46577;49.004;12.120;2023-04-07T09:07:31;9.00;;;8.10;;
60726;SDS011;46577;49.004;12.120;2023-04-07T09:09:59;9.77;;;8.80;;
60726;SDS011;46577;49.004;12.120;2023-04-07T09:12:28;9.40;;;8.27;;
60726;SDS011;46577;49.004;12.120;2023-04-07T09:14:55;8.90;;;8.10;;
60726;SDS011;46577;49.004;12.120;2023-04-07T09:17:21;16.70;;;8.30;;
60726;SDS011;46577;49.004;12.120;2023-04-07T09:19:48;9.53;;;8.30;;
60726;SDS011;46577;49.004;12.120;2023-04-07T09:22:18;7.80;;;7.10;;
60726;SDS011;46577;49.004;12.120;2023-04-07T09:25:10;7.35;;;6.65;;
60726;SDS011;46577;49.004;12.120;2023-04-07T09:27:57;7.57;;;6.93;;
60726;SDS011;46577;49.004;12.120;2023-04-07T09:30:24;14.82;;;8.00;;
60726;SDS011;46577;49.004;12.120;2023-04-07T09:32:50;7.82;;;7.20;;
60726;SDS011;46577;49.004;12.120;2023-04-07T09:35:16;10.15;;;7.60;;
60726;SDS011;46577;49.004;12.120;2023-04-07T09:37:42;9.60;;;7.15;;
60726;SDS011;46577;49.004;12.120;2023-04-07T09:40:09;7.72;;;6.93;;
60726;SDS011;46577;49.004;12.120;2023-04-07T09:42:35;9.15;;;8.00;;
60726;SDS011;46577;49.004;12.120;2023-04-07T09:45:09;8.85;;;7.97;;
60726;SDS011;46577;49.004;12.120;2023-04-07T09:47:36;8.65;;;7.85;;
60726;SDS011;46577;49.004;12.120;2023-04-07T09:50:02;8.43;;;7.63;;
60726;SDS011;46577;49.004;12.120;2023-04-07T09:55:26;9.27;;;8.48;;
60726;SDS011;46577;49.004;12.120;2023-04-07T09:57:53;10.57;;;8.38;;
60726;SDS011;46577;49.004;12.120;2023-04-07T10:00:22;12.57;;;9.77;;
60726;SDS011;46577;49.004;12.120;2023-04-07T10:02:49;9.60;;;8.67;;
60726;SDS011;46577;49.004;12.120;2023-04-07T10:05:15;9.27;;;8.33;;
60726;SDS011;46577;49.004;12.120;2023-04-07T10:07:42;9.50;;;8.47;;
60726;SDS011;46577;49.004;12.120;2023-04-07T10:10:08;10.02;;;9.07;;
60726;SDS011;46577;49.004;12.120;2023-04-07T10:12:36;9.13;;;8.32;;
60726;SDS011;46577;49.004;12.120;2023-04-07T10:15:02;8.77;;;7.97;;
60726;SDS011;46577;49.004;12.120;2023-04-07T10:17:29;9.98;;;9.15;;
60726;SDS011;46577;49.004;12.120;2023-04-07T10:19:59;9.50;;;8.57;;
60726;SDS011;46577;49.004;12.120;2023-04-07T10:22:26;8.80;;;7.82;;
60726;SDS011;46577;49.004;12.120;2023-04-07T10:27:30;9.38;;;8.57;;
60726;SDS011;46577;49.004;12.120;2023-04-07T10:30:03;10.02;;;8.52;;
60726;SDS011;46577;49.004;12.120;2023-04-07T10:32:31;10.03;;;9.13;;
60726;SDS011;46577;49.004;12.120;2023-04-07T10:34:57;10.20;;;9.20;;
60726;SDS011;46577;49.004;12.120;2023-04-07T10:37:24;10.48;;;9.38;;
60726;SDS011;46577;49.004;12.120;2023-04-07T10:42:43;9.02;;;8.13;;
60726;SDS011;46577;49.004;12.120;2023-04-07T10:45:11;9.07;;;8.32;;
60726;SDS011;46577;49.004;12.120;2023-04-07T10:50:21;7.40;;;6.72;;
60726;SDS011;46577;49.004;12.120;2023-04-07T10:52:48;11.85;;;8.60;;
60726;SDS011;46577;49.004;12.120;2023-04-07T10:55:30;9.32;;;8.52;;
60726;SDS011;46577;49.004;12.120;2023-04-07T11:00:42;9.55;;;8.60;;
60726;SDS011;46577;49.004;12.120;2023-04-07T11:03:28;8.80;;;8.03;;
60726;SDS011;46577;49.004;12.120;2023-04-07T11:06:04;9.90;;;8.90;;
60726;SDS011;46577;49.004;12.120;2023-04-07T11:11:11;9.63;;;8.73;;
60726;SDS011;46577;49.004;12.120;2023-04-07T11:13:45;11.13;;;10.07;;
60726;SDS011;46577;49.004;12.120;2023-04-07T11:16:15;10.00;;;8.50;;
60726;SDS011;46577;49.004;12.120;2023-04-07T11:18:42;11.50;;;10.07;;
60726;SDS011;46577;49.004;12.120;2023-04-07T11:21:10;11.17;;;10.00;;
60726;SDS011;46577;49.004;12.120;2023-04-07T11:23:42;11.57;;;10.37;;
60726;SDS011;46577;49.004;12.120;2023-04-07T11:26:10;17.90;;;10.67;;
60726;SDS011;46577;49.004;12.120;2023-04-07T11:28:44;13.40;;;9.93;;
60726;SDS011;46577;49.004;12.120;2023-04-07T11:31:20;14.97;;;11.13;;
60726;SDS011;46577;49.004;12.120;2023-04-07T11:33:50;12.90;;;11.67;;
60726;SDS011;46577;49.004;12.120;2023-04-07T11:36:33;14.07;;;12.60;;
60726;SDS011;46577;49.004;12.120;2023-04-07T11:39:02;14.47;;;12.47;;
60726;SDS011;46577;49.004;12.120;2023-04-07T11:41:28;18.23;;;12.40;;
60726;SDS011;46577;49.004;12.120;2023-04-07T11:44:08;16.57;;;13.60;;
60726;SDS011;46577;49.004;12.120;2023-04-07T11:46:35;15.50;;;12.43;;
60726;SDS011;46577;49.004;12.120;2023-04-07T11:49:11;13.17;;;11.77;;
60726;SDS011;46577;49.004;12.120;2023-04-07T11:51:38;14.30;;;11.67;;
60726;SDS011;46577;49.004;12.120;2023-04-07T11:54:05;13.77;;;11.53;;
60726;SDS011;46577;49.004;12.120;2023-04-07T11:56:40;13.27;;;11.87;;
60726;SDS011;46577;49.004;12.120;2023-04-07T11:59:08;18.67;;;12.53;;
60726;SDS011;46577;49.004;12.120;2023-04-07T12:01:42;14.40;;;11.50;;
60726;SDS011;46577;49.004;12.120;2023-04-07T12:04:11;15.10;;;11.70;;
60726;SDS011;46577;49.004;12.120;2023-04-07T12:06:38;15.87;;;11.57;;
60726;SDS011;46577;49.004;12.120;2023-04-07T12:09:06;14.33;;;12.00;;
60726;SDS011;46577;49.004;12.120;2023-04-07T12:11:33;16.97;;;12.17;;
60726;SDS011;46577;49.004;12.120;2023-04-07T12:14:00;13.17;;;11.73;;
60726;SDS011;46577;49.004;12.120;2023-04-07T12:16:29;12.80;;;10.43;;
60726;SDS011;46577;49.004;12.120;2023-04-07T12:18:54;16.63;;;11.50;;
60726;SDS011;46577;49.004;12.120;2023-04-07T12:21:21;14.40;;;12.13;;
60726;SDS011;46577;49.004;12.120;2023-04-07T12:23:48;16.33;;;10.87;;
60726;SDS011;46577;49.004;12.120;2023-04-07T12:26:13;14.60;;;10.90;;
60726;SDS011;46577;49.004;12.120;2023-04-07T12:28:39;18.10;;;11.87;;
60726;SDS011;46577;49.004;12.120;2023-04-07T12:31:05;16.20;;;11.37;;
60726;SDS011;46577;49.004;12.120;2023-04-07T12:33:30;13.47;;;11.57;;
60726;SDS011;46577;49.004;12.120;2023-04-07T12:35:56;15.80;;;11.30;;
60726;SDS011;46577;49.004;12.120;2023-04-07T12:38:22;14.37;;;11.20;;
60726;SDS011;46577;49.004;12.120;2023-04-07T12:40:48;16.50;;;11.70;;
60726;SDS011;46577;49.004;12.120;2023-04-07T12:43:14;16.57;;;10.90;;
60726;SDS011;46577;49.004;12.120;2023-04-07T12:45:39;13.53;;;10.97;;
60726;SDS011;46577;49.004;12.120;2023-04-07T12:48:05;18.73;;;13.00;;
60726;SDS011;46577;49.004;12.120;2023-04-07T12:50:31;16.27;;;12.03;;
60726;SDS011;46577;49.004;12.120;2023-04-07T12:52:57;13.60;;;10.73;;
60726;SDS011;46577;49.004;12.120;2023-04-07T12:55:24;14.40;;;11.47;;
60726;SDS011;46577;49.004;12.120;2023-04-07T12:57:49;17.57;;;11.27;;
60726;SDS011;46577;49.004;12.120;2023-04-07T13:00:15;20.77;;;12.83;;
60726;SDS011;46577;49.004;12.120;2023-04-07T13:02:41;14.07;;;11.27;;
60726;SDS011;46577;49.004;12.120;2023-04-07T13:05:07;19.07;;;10.70;;
60726;SDS011;46577;49.004;12.120;2023-04-07T13:07:33;15.90;;;11.90;;
60726;SDS011;46577;49.004;12.120;2023-04-07T13:10:00;18.20;;;11.07;;
60726;SDS011;46577;49.004;12.120;2023-04-07T13:12:26;17.20;;;11.63;;
60726;SDS011;46577;49.004;12.120;2023-04-07T13:14:52;16.13;;;11.23;;
60726;SDS011;46577;49.004;12.120;2023-04-07T13:17:18;14.53;;;11.47;;
60726;SDS011;46577;49.004;12.120;2023-04-07T13:19:44;12.77;;;9.60;;
60726;SDS011;46577;49.004;12.120;2023-04-07T13:22:12;17.40;;;11.27;;
60726;SDS011;46577;49.004;12.120;2023-04-07T13:24:38;14.40;;;10.10;;
60726;SDS011;46577;49.004;12.120;2023-04-07T13:27:04;16.00;;;11.00;;
60726;SDS011;46577;49.004;12.120;2023-04-07T13:29:30;14.93;;;10.63;;
60726;SDS011;46577;49.004;12.120;2023-04-07T13:32:05;13.47;;;9.60;;
60726;SDS011;46577;49.004;12.120;2023-04-07T13:34:32;18.60;;;10.33;;
60726;SDS011;46577;49.004;12.120;2023-04-07T13:37:02;12.73;;;9.93;;
60726;SDS011;46577;49.004;12.120;2023-04-07T13:39:28;12.63;;;10.13;;
60726;SDS011;46577;49.004;12.120;2023-04-07T13:41:54;18.07;;;10.73;;
60726;SDS011;46577;49.004;12.120;2023-04-07T13:44:20;13.80;;;9.77;;
60726;SDS011;46577;49.004;12.120;2023-04-07T13:46:46;13.20;;;9.80;;
60726;SDS011;46577;49.004;12.120;2023-04-07T13:49:12;14.40;;;10.37;;
60726;SDS011;46577;49.004;12.120;2023-04-07T13:51:39;16.63;;;10.53;;
60726;SDS011;46577;49.004;12.120;2023-04-07T13:54:04;17.83;;;11.40;;
60726;SDS011;46577;49.004;12.120;2023-04-07T13:56:30;14.20;;;9.90;;
60726;SDS011;46577;49.004;12.120;2023-04-07T13:58:56;16.23;;;11.07;;
60726;SDS011;46577;49.004;12.120;2023-04-07T14:01:22;17.50;;;10.93;;
60726;SDS011;46577;49.004;12.120;2023-04-07T14:03:48;18.37;;;11.83;;
60726;SDS011;46577;49.004;12.120;2023-04-07T14:06:13;14.33;;;10.40;;
60726;SDS011;46577;49.004;12.120;2023-04-07T14:08:39;15.30;;;10.40;;
60726;SDS011;46577;49.004;12.120;2023-04-07T14:11:05;14.03;;;10.20;;
60726;SDS011;46577;49.004;12.120;2023-04-07T14:13:31;17.17;;;10.13;;
60726;SDS011;46577;49.004;12.120;2023-04-07T14:15:56;13.70;;;10.17;;
60726;SDS011;46577;49.004;12.120;2023-04-07T14:18:22;15.00;;;10.00;;
60726;SDS011;46577;49.004;12.120;2023-04-07T14:20:48;12.53;;;8.80;;
60726;SDS011;46577;49.004;12.120;2023-04-07T14:23:14;15.97;;;9.90;;
60726;SDS011;46577;49.004;12.120;2023-04-07T14:25:40;16.00;;;10.77;;
60726;SDS011;46577;49.004;12.120;2023-04-07T14:28:06;15.47;;;10.23;;
60726;SDS011;46577;49.004;12.120;2023-04-07T14:30:36;12.30;;;9.37;;
60726;SDS011;46577;49.004;12.120;2023-04-07T14:33:03;15.07;;;10.70;;
60726;SDS011;46577;49.004;12.120;2023-04-07T14:35:28;12.70;;;9.60;;
60726;SDS011;46577;49.004;12.120;2023-04-07T14:37:54;14.97;;;10.13;;
60726;SDS011;46577;49.004;12.120;2023-04-07T14:40:20;14.10;;;9.33;;